sensor_id;sensor_type;location;lat;lon;timestamp;P1;durP1;ratioP1;P2;durP2;ratioP2
19675;SDS011;39539;52.202;9.876;2022-07-24T00:00:42;2.25;;;1.83;;
19675;SDS011;39539;52.202;9.876;2022-07-24T00:03:07;1.92;;;1.83;;
19675;SDS011;39539;52.202;9.876;2022-07-24T00:05:33;2.45;;;2.25;;
19675;SDS011;39539;52.202;9.876;2022-07-24T00:07:59;2.50;;;2.22;;
19675;SDS011;39539;52.202;9.876;2022-07-24T00:10:24;2.30;;;2.20;;
19675;SDS011;39539;52.202;9.876;2022-07-24T00:12:50;2.22;;;2.13;;
19675;SDS011;39539;52.202;9.876;2022-07-24T00:15:15;2.53;;;2.42;;
19675;SDS011;39539;52.202;9.876;2022-07-24T00:17:42;2.22;;;2.10;;
19675;SDS011;39539;52.202;9.876;2022-07-24T00:20:07;2.50;;;2.30;;
19675;SDS011;39539;52.202;9.876;2022-07-24T00:22:33;2.35;;;2.15;;
19675;SDS011;39539;52.202;9.876;2022-07-24T00:24:58;3.30;;;2.50;;
19675;SDS011;39539;52.202;9.876;2022-07-24T00:27:24;2.40;;;2.30;;
19675;SDS011;39539;52.202;9.876;2022-07-24T00:29:49;2.40;;;2.30;;
19675;SDS011;39539;52.202;9.876;2022-07-24T00:32:15;2.47;;;2.25;;
19675;SDS011;39539;52.202;9.876;2022-07-24T00:34:40;2.58;;;2.22;;
19675;SDS011;39539;52.202;9.876;2022-07-24T00:37:06;2.92;;;2.72;;
19675;SDS011;39539;52.202;9.876;2022-07-24T00:39:31;2.38;;;2.10;;
19675;SDS011;39539;52.202;9.876;2022-07-24T00:41:57;2.60;;;2.40;;
19675;SDS011;39539;52.202;9.876;2022-07-24T00:44:22;2.40;;;2.20;;
19675;SDS011;39539;52.202;9.876;2022-07-24T00:46:49;3.22;;;2.50;;
19675;SDS011;39539;52.202;9.876;2022-07-24T00:49:15;2.35;;;2.15;;
19675;SDS011;39539;52.202;9.876;2022-07-24T00:51:43;2.50;;;2.40;;
19675;SDS011;39539;52.202;9.876;2022-07-24T00:54:11;3.80;;;2.10;;
19675;SDS011;39539;52.202;9.876;2022-07-24T00:56:37;2.50;;;2.25;;
19675;SDS011;39539;52.202;9.876;2022-07-24T00:59:04;2.45;;;2.25;;
19675;SDS011;39539;52.202;9.876;2022-07-24T01:01:30;2.25;;;2.15;;
19675;SDS011;39539;52.202;9.876;2022-07-24T01:03:56;2.72;;;1.98;;
19675;SDS011;39539;52.202;9.876;2022-07-24T01:06:22;2.28;;;2.17;;
19675;SDS011;39539;52.202;9.876;2022-07-24T01:08:48;2.38;;;2.08;;
19675;SDS011;39539;52.202;9.876;2022-07-24T01:11:13;2.30;;;2.10;;
19675;SDS011;39539;52.202;9.876;2022-07-24T01:13:39;2.60;;;2.40;;
19675;SDS011;39539;52.202;9.876;2022-07-24T01:16:06;2.83;;;2.63;;
19675;SDS011;39539;52.202;9.876;2022-07-24T01:18:32;2.83;;;2.63;;
19675;SDS011;39539;52.202;9.876;2022-07-24T01:20:58;2.83;;;2.63;;
19675;SDS011;39539;52.202;9.876;2022-07-24T01:23:23;2.90;;;2.70;;
19675;SDS011;39539;52.202;9.876;2022-07-24T01:25:49;2.40;;;2.20;;
19675;SDS011;39539;52.202;9.876;2022-07-24T01:28:15;2.65;;;2.22;;
19675;SDS011;39539;52.202;9.876;2022-07-24T01:30:40;2.55;;;2.45;;
19675;SDS011;39539;52.202;9.876;2022-07-24T01:33:06;2.80;;;2.60;;
19675;SDS011;39539;52.202;9.876;2022-07-24T01:35:31;2.70;;;2.50;;
19675;SDS011;39539;52.202;9.876;2022-07-24T01:37:57;2.90;;;2.70;;
19675;SDS011;39539;52.202;9.876;2022-07-24T01:40:23;2.75;;;2.55;;
19675;SDS011;39539;52.202;9.876;2022-07-24T01:42:49;2.83;;;2.63;;
19675;SDS011;39539;52.202;9.876;2022-07-24T01:45:15;2.53;;;2.33;;
19675;SDS011;39539;52.202;9.876;2022-07-24T01:47:41;3.03;;;2.80;;
19675;SDS011;39539;52.202;9.876;2022-07-24T01:50:08;3.28;;;3.08;;
19675;SDS011;39539;52.202;9.876;2022-07-24T01:52:37;2.72;;;2.53;;
19675;SDS011;39539;52.202;9.876;2022-07-24T01:55:03;3.10;;;2.90;;
19675;SDS011;39539;52.202;9.876;2022-07-24T01:57:29;2.85;;;2.60;;
19675;SDS011;39539;52.202;9.876;2022-07-24T01:59:55;2.72;;;2.53;;
19675;SDS011;39539;52.202;9.876;2022-07-24T02:02:21;2.72;;;2.53;;
19675;SDS011;39539;52.202;9.876;2022-07-24T02:04:46;3.38;;;3.17;;
19675;SDS011;39539;52.202;9.876;2022-07-24T02:07:11;3.00;;;2.80;;
19675;SDS011;39539;52.202;9.876;2022-07-24T02:09:37;2.50;;;2.38;;
19675;SDS011;39539;52.202;9.876;2022-07-24T02:12:02;3.00;;;2.80;;
19675;SDS011;39539;52.202;9.876;2022-07-24T02:14:28;3.00;;;2.80;;
19675;SDS011;39539;52.202;9.876;2022-07-24T02:16:53;3.03;;;2.83;;
19675;SDS011;39539;52.202;9.876;2022-07-24T02:19:18;3.00;;;2.80;;
19675;SDS011;39539;52.202;9.876;2022-07-24T02:21:44;2.92;;;2.72;;
19675;SDS011;39539;52.202;9.876;2022-07-24T02:24:09;3.10;;;2.90;;
19675;SDS011;39539;52.202;9.876;2022-07-24T02:26:35;2.92;;;2.72;;
19675;SDS011;39539;52.202;9.876;2022-07-24T02:29:00;2.75;;;2.55;;
19675;SDS011;39539;52.202;9.876;2022-07-24T02:31:25;2.83;;;2.63;;
19675;SDS011;39539;52.202;9.876;2022-07-24T02:33:51;4.25;;;2.15;;
19675;SDS011;39539;52.202;9.876;2022-07-24T02:36:17;2.60;;;2.40;;
19675;SDS011;39539;52.202;9.876;2022-07-24T02:38:42;2.80;;;2.60;;
19675;SDS011;39539;52.202;9.876;2022-07-24T02:41:07;2.90;;;2.70;;
19675;SDS011;39539;52.202;9.876;2022-07-24T02:43:33;3.58;;;3.00;;
19675;SDS011;39539;52.202;9.876;2022-07-24T02:45:59;3.05;;;2.83;;
19675;SDS011;39539;52.202;9.876;2022-07-24T02:48:24;3.75;;;3.35;;
19675;SDS011;39539;52.202;9.876;2022-07-24T02:50:50;3.03;;;2.72;;
19675;SDS011;39539;52.202;9.876;2022-07-24T02:53:15;3.08;;;2.92;;
19675;SDS011;39539;52.202;9.876;2022-07-24T02:55:40;3.35;;;3.15;;
19675;SDS011;39539;52.202;9.876;2022-07-24T02:58:06;3.58;;;3.28;;
19675;SDS011;39539;52.202;9.876;2022-07-24T03:00:31;3.55;;;3.25;;
19675;SDS011;39539;52.202;9.876;2022-07-24T03:02:57;4.03;;;3.60;;
19675;SDS011;39539;52.202;9.876;2022-07-24T03:05:23;5.10;;;4.70;;
19675;SDS011;39539;52.202;9.876;2022-07-24T03:07:48;4.85;;;4.55;;
19675;SDS011;39539;52.202;9.876;2022-07-24T03:10:14;4.72;;;4.43;;
19675;SDS011;39539;52.202;9.876;2022-07-24T03:12:40;5.28;;;4.88;;
19675;SDS011;39539;52.202;9.876;2022-07-24T03:15:06;5.03;;;4.63;;
19675;SDS011;39539;52.202;9.876;2022-07-24T03:17:32;5.30;;;4.90;;
19675;SDS011;39539;52.202;9.876;2022-07-24T03:19:58;4.95;;;4.55;;
19675;SDS011;39539;52.202;9.876;2022-07-24T03:22:23;4.82;;;4.45;;
19675;SDS011;39539;52.202;9.876;2022-07-24T03:24:49;4.32;;;4.03;;
19675;SDS011;39539;52.202;9.876;2022-07-24T03:27:14;4.70;;;4.40;;
19675;SDS011;39539;52.202;9.876;2022-07-24T03:29:39;4.30;;;4.00;;
19675;SDS011;39539;52.202;9.876;2022-07-24T03:32:05;4.55;;;4.22;;
19675;SDS011;39539;52.202;9.876;2022-07-24T03:34:30;4.53;;;4.20;;
19675;SDS011;39539;52.202;9.876;2022-07-24T03:36:56;4.55;;;4.25;;
19675;SDS011;39539;52.202;9.876;2022-07-24T03:39:21;5.00;;;4.70;;
19675;SDS011;39539;52.202;9.876;2022-07-24T03:41:47;4.90;;;4.00;;
19675;SDS011;39539;52.202;9.876;2022-07-24T03:44:13;4.88;;;4.47;;
19675;SDS011;39539;52.202;9.876;2022-07-24T03:46:38;4.68;;;4.28;;
19675;SDS011;39539;52.202;9.876;2022-07-24T03:49:03;4.25;;;3.95;;
19675;SDS011;39539;52.202;9.876;2022-07-24T03:51:29;4.35;;;4.05;;
19675;SDS011;39539;52.202;9.876;2022-07-24T03:53:54;3.58;;;3.38;;
19675;SDS011;39539;52.202;9.876;2022-07-24T03:56:20;3.63;;;3.38;;
19675;SDS011;39539;52.202;9.876;2022-07-24T03:58:45;3.42;;;3.22;;
19675;SDS011;39539;52.202;9.876;2022-07-24T04:01:11;3.75;;;3.55;;
19675;SDS011;39539;52.202;9.876;2022-07-24T04:03:37;3.63;;;3.40;;
19675;SDS011;39539;52.202;9.876;2022-07-24T04:06:03;3.53;;;3.33;;
19675;SDS011;39539;52.202;9.876;2022-07-24T04:08:30;3.35;;;3.15;;
19675;SDS011;39539;52.202;9.876;2022-07-24T04:10:56;3.35;;;3.10;;
19675;SDS011;39539;52.202;9.876;2022-07-24T04:13:28;3.60;;;3.30;;
19675;SDS011;39539;52.202;9.876;2022-07-24T04:15:54;3.95;;;3.15;;
19675;SDS011;39539;52.202;9.876;2022-07-24T04:18:20;3.53;;;3.33;;
19675;SDS011;39539;52.202;9.876;2022-07-24T04:20:46;3.28;;;3.08;;
19675;SDS011;39539;52.202;9.876;2022-07-24T04:23:12;3.53;;;3.33;;
19675;SDS011;39539;52.202;9.876;2022-07-24T04:25:37;3.97;;;3.67;;
19675;SDS011;39539;52.202;9.876;2022-07-24T04:28:03;3.67;;;3.38;;
19675;SDS011;39539;52.202;9.876;2022-07-24T04:30:29;10.13;;;3.80;;
19675;SDS011;39539;52.202;9.876;2022-07-24T04:32:55;3.30;;;3.10;;
19675;SDS011;39539;52.202;9.876;2022-07-24T04:35:21;3.67;;;3.40;;
19675;SDS011;39539;52.202;9.876;2022-07-24T04:37:47;3.25;;;3.05;;
19675;SDS011;39539;52.202;9.876;2022-07-24T04:40:13;3.40;;;3.08;;
19675;SDS011;39539;52.202;9.876;2022-07-24T04:42:38;3.40;;;3.20;;
19675;SDS011;39539;52.202;9.876;2022-07-24T04:45:04;3.10;;;2.90;;
19675;SDS011;39539;52.202;9.876;2022-07-24T04:47:31;3.22;;;3.03;;
19675;SDS011;39539;52.202;9.876;2022-07-24T04:49:57;3.78;;;3.47;;
19675;SDS011;39539;52.202;9.876;2022-07-24T04:52:22;3.10;;;2.90;;
19675;SDS011;39539;52.202;9.876;2022-07-24T04:54:48;3.72;;;3.42;;
19675;SDS011;39539;52.202;9.876;2022-07-24T04:57:13;3.90;;;3.50;;
19675;SDS011;39539;52.202;9.876;2022-07-24T04:59:38;3.90;;;3.60;;
19675;SDS011;39539;52.202;9.876;2022-07-24T05:02:04;3.85;;;3.55;;
19675;SDS011;39539;52.202;9.876;2022-07-24T05:04:29;3.35;;;3.15;;
19675;SDS011;39539;52.202;9.876;2022-07-24T05:06:55;3.50;;;3.30;;
19675;SDS011;39539;52.202;9.876;2022-07-24T05:09:21;4.05;;;3.75;;
19675;SDS011;39539;52.202;9.876;2022-07-24T05:11:47;3.35;;;3.13;;
19675;SDS011;39539;52.202;9.876;2022-07-24T05:14:12;3.25;;;3.03;;
19675;SDS011;39539;52.202;9.876;2022-07-24T05:16:38;3.42;;;3.22;;
19675;SDS011;39539;52.202;9.876;2022-07-24T05:19:03;3.70;;;3.40;;
19675;SDS011;39539;52.202;9.876;2022-07-24T05:21:30;4.07;;;3.13;;
19675;SDS011;39539;52.202;9.876;2022-07-24T05:23:56;3.40;;;3.10;;
19675;SDS011;39539;52.202;9.876;2022-07-24T05:26:23;3.75;;;3.50;;
19675;SDS011;39539;52.202;9.876;2022-07-24T05:28:48;3.22;;;3.03;;
19675;SDS011;39539;52.202;9.876;2022-07-24T05:31:14;3.58;;;3.30;;
19675;SDS011;39539;52.202;9.876;2022-07-24T05:33:39;3.15;;;2.85;;
19675;SDS011;39539;52.202;9.876;2022-07-24T05:36:04;2.92;;;2.72;;
19675;SDS011;39539;52.202;9.876;2022-07-24T05:38:30;3.05;;;2.85;;
19675;SDS011;39539;52.202;9.876;2022-07-24T05:40:57;3.13;;;2.50;;
19675;SDS011;39539;52.202;9.876;2022-07-24T05:43:22;3.05;;;2.85;;
19675;SDS011;39539;52.202;9.876;2022-07-24T05:45:48;3.40;;;3.20;;
19675;SDS011;39539;52.202;9.876;2022-07-24T05:48:16;3.00;;;2.80;;
19675;SDS011;39539;52.202;9.876;2022-07-24T05:50:41;2.70;;;2.50;;
19675;SDS011;39539;52.202;9.876;2022-07-24T05:53:06;2.65;;;2.55;;
19675;SDS011;39539;52.202;9.876;2022-07-24T05:55:32;2.92;;;2.72;;
19675;SDS011;39539;52.202;9.876;2022-07-24T05:57:57;3.20;;;2.63;;
19675;SDS011;39539;52.202;9.876;2022-07-24T06:00:23;2.63;;;2.42;;
19675;SDS011;39539;52.202;9.876;2022-07-24T06:02:48;3.20;;;2.63;;
19675;SDS011;39539;52.202;9.876;2022-07-24T06:05:15;2.30;;;2.20;;
19675;SDS011;39539;52.202;9.876;2022-07-24T06:07:41;2.38;;;2.28;;
19675;SDS011;39539;52.202;9.876;2022-07-24T06:10:07;2.15;;;2.05;;
19675;SDS011;39539;52.202;9.876;2022-07-24T06:12:33;3.15;;;2.00;;
19675;SDS011;39539;52.202;9.876;2022-07-24T06:14:58;2.50;;;2.20;;
19675;SDS011;39539;52.202;9.876;2022-07-24T06:17:24;2.00;;;1.80;;
19675;SDS011;39539;52.202;9.876;2022-07-24T06:19:49;2.08;;;1.85;;
19675;SDS011;39539;52.202;9.876;2022-07-24T06:22:15;1.63;;;1.52;;
19675;SDS011;39539;52.202;9.876;2022-07-24T06:24:40;1.60;;;1.50;;
19675;SDS011;39539;52.202;9.876;2022-07-24T06:27:06;1.60;;;1.50;;
19675;SDS011;39539;52.202;9.876;2022-07-24T06:29:31;1.40;;;1.30;;
19675;SDS011;39539;52.202;9.876;2022-07-24T06:31:57;1.35;;;1.25;;
19675;SDS011;39539;52.202;9.876;2022-07-24T06:34:22;1.63;;;1.10;;
19675;SDS011;39539;52.202;9.876;2022-07-24T06:36:51;1.35;;;1.13;;
19675;SDS011;39539;52.202;9.876;2022-07-24T06:39:17;1.83;;;1.23;;
19675;SDS011;39539;52.202;9.876;2022-07-24T06:41:43;1.25;;;1.15;;
19675;SDS011;39539;52.202;9.876;2022-07-24T06:44:08;1.85;;;0.88;;
19675;SDS011;39539;52.202;9.876;2022-07-24T06:46:34;0.70;;;0.70;;
19675;SDS011;39539;52.202;9.876;2022-07-24T06:48:59;1.48;;;0.90;;
19675;SDS011;39539;52.202;9.876;2022-07-24T06:51:25;1.45;;;0.98;;
19675;SDS011;39539;52.202;9.876;2022-07-24T06:53:50;1.02;;;0.98;;
19675;SDS011;39539;52.202;9.876;2022-07-24T06:56:16;0.77;;;0.70;;
19675;SDS011;39539;52.202;9.876;2022-07-24T06:58:41;1.30;;;1.08;;
19675;SDS011;39539;52.202;9.876;2022-07-24T07:01:06;0.80;;;0.80;;
19675;SDS011;39539;52.202;9.876;2022-07-24T07:03:32;0.90;;;0.90;;
19675;SDS011;39539;52.202;9.876;2022-07-24T07:05:57;1.33;;;0.82;;
19675;SDS011;39539;52.202;9.876;2022-07-24T07:08:23;1.05;;;0.70;;
19675;SDS011;39539;52.202;9.876;2022-07-24T07:10:48;1.77;;;0.75;;
19675;SDS011;39539;52.202;9.876;2022-07-24T07:13:14;1.00;;;0.70;;
19675;SDS011;39539;52.202;9.876;2022-07-24T07:15:39;0.88;;;0.70;;
19675;SDS011;39539;52.202;9.876;2022-07-24T07:18:04;0.65;;;0.52;;
19675;SDS011;39539;52.202;9.876;2022-07-24T07:20:30;1.20;;;0.60;;
19675;SDS011;39539;52.202;9.876;2022-07-24T07:22:55;0.60;;;0.60;;
19675;SDS011;39539;52.202;9.876;2022-07-24T07:25:21;2.15;;;1.00;;
19675;SDS011;39539;52.202;9.876;2022-07-24T07:27:46;2.35;;;0.80;;
19675;SDS011;39539;52.202;9.876;2022-07-24T07:30:13;0.82;;;0.70;;
19675;SDS011;39539;52.202;9.876;2022-07-24T07:32:38;1.92;;;0.90;;
19675;SDS011;39539;52.202;9.876;2022-07-24T07:35:04;0.80;;;0.80;;
19675;SDS011;39539;52.202;9.876;2022-07-24T07:37:30;1.63;;;0.98;;
19675;SDS011;39539;52.202;9.876;2022-07-24T07:39:55;2.03;;;0.85;;
19675;SDS011;39539;52.202;9.876;2022-07-24T07:42:22;1.67;;;0.80;;
19675;SDS011;39539;52.202;9.876;2022-07-24T07:44:48;1.38;;;0.95;;
19675;SDS011;39539;52.202;9.876;2022-07-24T07:47:13;0.70;;;0.70;;
19675;SDS011;39539;52.202;9.876;2022-07-24T07:49:39;0.93;;;0.90;;
19675;SDS011;39539;52.202;9.876;2022-07-24T07:52:04;1.08;;;0.82;;
19675;SDS011;39539;52.202;9.876;2022-07-24T07:54:30;1.25;;;0.88;;
19675;SDS011;39539;52.202;9.876;2022-07-24T07:56:55;0.82;;;0.80;;
19675;SDS011;39539;52.202;9.876;2022-07-24T07:59:20;1.30;;;0.82;;
19675;SDS011;39539;52.202;9.876;2022-07-24T08:01:46;1.88;;;0.80;;
19675;SDS011;39539;52.202;9.876;2022-07-24T08:04:11;2.03;;;1.20;;
19675;SDS011;39539;52.202;9.876;2022-07-24T08:06:40;2.45;;;0.90;;
19675;SDS011;39539;52.202;9.876;2022-07-24T08:09:06;1.95;;;1.05;;
19675;SDS011;39539;52.202;9.876;2022-07-24T08:11:32;1.20;;;1.08;;
19675;SDS011;39539;52.202;9.876;2022-07-24T08:13:58;1.08;;;1.00;;
19675;SDS011;39539;52.202;9.876;2022-07-24T08:16:23;1.20;;;1.10;;
19675;SDS011;39539;52.202;9.876;2022-07-24T08:18:49;1.40;;;1.20;;
19675;SDS011;39539;52.202;9.876;2022-07-24T08:21:15;2.28;;;1.33;;
19675;SDS011;39539;52.202;9.876;2022-07-24T08:23:43;1.15;;;1.05;;
19675;SDS011;39539;52.202;9.876;2022-07-24T08:26:11;1.63;;;1.10;;
19675;SDS011;39539;52.202;9.876;2022-07-24T08:28:37;1.45;;;1.35;;
19675;SDS011;39539;52.202;9.876;2022-07-24T08:31:02;1.35;;;1.05;;
19675;SDS011;39539;52.202;9.876;2022-07-24T08:33:29;1.98;;;1.08;;
19675;SDS011;39539;52.202;9.876;2022-07-24T08:35:54;2.88;;;1.20;;
19675;SDS011;39539;52.202;9.876;2022-07-24T08:38:20;2.85;;;1.48;;
19675;SDS011;39539;52.202;9.876;2022-07-24T08:40:45;1.88;;;1.70;;
19675;SDS011;39539;52.202;9.876;2022-07-24T08:43:10;1.48;;;1.33;;
19675;SDS011;39539;52.202;9.876;2022-07-24T08:45:37;1.50;;;1.40;;
19675;SDS011;39539;52.202;9.876;2022-07-24T08:48:06;1.40;;;1.40;;
19675;SDS011;39539;52.202;9.876;2022-07-24T08:50:34;1.52;;;1.35;;
19675;SDS011;39539;52.202;9.876;2022-07-24T08:53:01;1.83;;;1.30;;
19675;SDS011;39539;52.202;9.876;2022-07-24T08:55:28;2.17;;;1.48;;
19675;SDS011;39539;52.202;9.876;2022-07-24T08:57:57;1.42;;;1.33;;
19675;SDS011;39539;52.202;9.876;2022-07-24T09:00:23;1.63;;;1.20;;
19675;SDS011;39539;52.202;9.876;2022-07-24T09:02:49;2.55;;;1.60;;
19675;SDS011;39539;52.202;9.876;2022-07-24T09:05:15;1.70;;;1.20;;
19675;SDS011;39539;52.202;9.876;2022-07-24T09:07:40;1.92;;;1.25;;
19675;SDS011;39539;52.202;9.876;2022-07-24T09:10:07;3.47;;;1.20;;
19675;SDS011;39539;52.202;9.876;2022-07-24T09:12:40;4.10;;;1.50;;
19675;SDS011;39539;52.202;9.876;2022-07-24T09:15:13;1.58;;;1.30;;
19675;SDS011;39539;52.202;9.876;2022-07-24T09:17:53;2.00;;;1.20;;
19675;SDS011;39539;52.202;9.876;2022-07-24T09:20:22;1.23;;;1.13;;
19675;SDS011;39539;52.202;9.876;2022-07-24T09:22:49;1.42;;;1.20;;
19675;SDS011;39539;52.202;9.876;2022-07-24T09:25:25;1.58;;;1.42;;
19675;SDS011;39539;52.202;9.876;2022-07-24T09:27:55;2.15;;;1.65;;
19675;SDS011;39539;52.202;9.876;2022-07-24T09:33:18;1.65;;;1.45;;
19675;SDS011;39539;52.202;9.876;2022-07-24T09:35:48;1.70;;;1.30;;
19675;SDS011;39539;52.202;9.876;2022-07-24T09:38:15;1.70;;;1.60;;
19675;SDS011;39539;52.202;9.876;2022-07-24T09:40:44;1.70;;;1.60;;
19675;SDS011;39539;52.202;9.876;2022-07-24T09:48:27;1.70;;;1.60;;
19675;SDS011;39539;52.202;9.876;2022-07-24T09:51:04;3.97;;;1.40;;
19675;SDS011;39539;52.202;9.876;2022-07-24T09:53:35;1.70;;;1.60;;
19675;SDS011;39539;52.202;9.876;2022-07-24T09:58:28;3.05;;;1.60;;
19675;SDS011;39539;52.202;9.876;2022-07-24T10:00:55;1.48;;;1.40;;
19675;SDS011;39539;52.202;9.876;2022-07-24T10:03:25;1.70;;;1.60;;
19675;SDS011;39539;52.202;9.876;2022-07-24T10:05:59;1.85;;;1.75;;
19675;SDS011;39539;52.202;9.876;2022-07-24T10:08:26;1.80;;;1.70;;
19675;SDS011;39539;52.202;9.876;2022-07-24T10:10:53;1.95;;;1.85;;
19675;SDS011;39539;52.202;9.876;2022-07-24T10:13:18;2.20;;;1.70;;
19675;SDS011;39539;52.202;9.876;2022-07-24T10:15:51;2.35;;;1.70;;
19675;SDS011;39539;52.202;9.876;2022-07-24T10:18:21;2.03;;;1.92;;
19675;SDS011;39539;52.202;9.876;2022-07-24T10:21:17;1.67;;;1.58;;
19675;SDS011;39539;52.202;9.876;2022-07-24T10:29:10;2.25;;;2.05;;
19675;SDS011;39539;52.202;9.876;2022-07-24T10:31:38;2.03;;;1.83;;
19675;SDS011;39539;52.202;9.876;2022-07-24T10:34:09;2.15;;;1.95;;
19675;SDS011;39539;52.202;9.876;2022-07-24T10:36:45;2.58;;;1.90;;
19675;SDS011;39539;52.202;9.876;2022-07-24T10:39:34;2.30;;;2.10;;
19675;SDS011;39539;52.202;9.876;2022-07-24T10:42:08;1.70;;;1.60;;
19675;SDS011;39539;52.202;9.876;2022-07-24T10:44:33;2.42;;;2.20;;
19675;SDS011;39539;52.202;9.876;2022-07-24T10:47:01;2.00;;;1.90;;
19675;SDS011;39539;52.202;9.876;2022-07-24T10:49:48;2.60;;;2.40;;
19675;SDS011;39539;52.202;9.876;2022-07-24T10:52:25;2.83;;;2.58;;
19675;SDS011;39539;52.202;9.876;2022-07-24T11:00:36;2.75;;;2.55;;
19675;SDS011;39539;52.202;9.876;2022-07-24T11:03:08;3.00;;;2.80;;
19675;SDS011;39539;52.202;9.876;2022-07-24T11:06:02;3.00;;;2.80;;
19675;SDS011;39539;52.202;9.876;2022-07-24T11:08:30;3.70;;;3.40;;
19675;SDS011;39539;52.202;9.876;2022-07-24T11:10:58;3.60;;;3.30;;
19675;SDS011;39539;52.202;9.876;2022-07-24T11:18:35;3.95;;;3.33;;
19675;SDS011;39539;52.202;9.876;2022-07-24T11:21:01;3.65;;;3.30;;
19675;SDS011;39539;52.202;9.876;2022-07-24T11:23:27;3.90;;;3.60;;
19675;SDS011;39539;52.202;9.876;2022-07-24T11:26:35;3.88;;;3.58;;
19675;SDS011;39539;52.202;9.876;2022-07-24T11:31:42;3.72;;;3.30;;
19675;SDS011;39539;52.202;9.876;2022-07-24T11:34:13;3.75;;;3.42;;
19675;SDS011;39539;52.202;9.876;2022-07-24T11:36:43;3.40;;;3.20;;
19675;SDS011;39539;52.202;9.876;2022-07-24T11:39:09;3.80;;;3.50;;
19675;SDS011;39539;52.202;9.876;2022-07-24T11:41:50;3.33;;;3.03;;
19675;SDS011;39539;52.202;9.876;2022-07-24T11:44:24;3.30;;;3.10;;
19675;SDS011;39539;52.202;9.876;2022-07-24T11:47:08;3.50;;;3.30;;
19675;SDS011;39539;52.202;9.876;2022-07-24T11:52:12;4.05;;;3.67;;
19675;SDS011;39539;52.202;9.876;2022-07-24T11:54:40;4.20;;;3.80;;
19675;SDS011;39539;52.202;9.876;2022-07-24T11:57:14;4.25;;;3.45;;
19675;SDS011;39539;52.202;9.876;2022-07-24T11:59:41;3.70;;;3.40;;
19675;SDS011;39539;52.202;9.876;2022-07-24T12:02:08;4.25;;;3.90;;
19675;SDS011;39539;52.202;9.876;2022-07-24T12:04:35;4.10;;;3.65;;
19675;SDS011;39539;52.202;9.876;2022-07-24T12:07:09;3.72;;;3.22;;
19675;SDS011;39539;52.202;9.876;2022-07-24T12:10:10;3.40;;;3.20;;
19675;SDS011;39539;52.202;9.876;2022-07-24T12:12:32;3.33;;;3.03;;
19675;SDS011;39539;52.202;9.876;2022-07-24T12:15:13;3.35;;;3.15;;
19675;SDS011;39539;52.202;9.876;2022-07-24T12:20:29;3.33;;;3.13;;
19675;SDS011;39539;52.202;9.876;2022-07-24T12:22:57;3.53;;;3.13;;
19675;SDS011;39539;52.202;9.876;2022-07-24T12:25:26;3.60;;;3.30;;
19675;SDS011;39539;52.202;9.876;2022-07-24T12:28:02;3.70;;;3.40;;
19675;SDS011;39539;52.202;9.876;2022-07-24T12:38:35;3.60;;;3.30;;
19675;SDS011;39539;52.202;9.876;2022-07-24T12:41:12;3.95;;;3.30;;
19675;SDS011;39539;52.202;9.876;2022-07-24T12:43:47;3.70;;;3.38;;
19675;SDS011;39539;52.202;9.876;2022-07-24T12:46:21;3.65;;;3.35;;
19675;SDS011;39539;52.202;9.876;2022-07-24T12:51:45;3.50;;;3.30;;
19675;SDS011;39539;52.202;9.876;2022-07-24T12:54:20;3.65;;;3.35;;
19675;SDS011;39539;52.202;9.876;2022-07-24T12:56:57;3.83;;;3.53;;
19675;SDS011;39539;52.202;9.876;2022-07-24T12:59:32;3.90;;;3.60;;
19675;SDS011;39539;52.202;9.876;2022-07-24T13:04:41;3.88;;;3.55;;
19675;SDS011;39539;52.202;9.876;2022-07-24T13:07:10;3.78;;;3.50;;
19675;SDS011;39539;52.202;9.876;2022-07-24T13:09:37;5.18;;;3.55;;
19675;SDS011;39539;52.202;9.876;2022-07-24T13:12:04;4.80;;;3.83;;
19675;SDS011;39539;52.202;9.876;2022-07-24T13:14:31;3.78;;;3.25;;
19675;SDS011;39539;52.202;9.876;2022-07-24T13:17:01;3.58;;;3.38;;
19675;SDS011;39539;52.202;9.876;2022-07-24T13:19:33;3.85;;;3.58;;
19675;SDS011;39539;52.202;9.876;2022-07-24T13:21:59;4.00;;;3.70;;
19675;SDS011;39539;52.202;9.876;2022-07-24T13:24:25;3.55;;;3.10;;
19675;SDS011;39539;52.202;9.876;2022-07-24T13:26:50;3.90;;;3.60;;
19675;SDS011;39539;52.202;9.876;2022-07-24T13:29:16;3.38;;;3.10;;
19675;SDS011;39539;52.202;9.876;2022-07-24T13:31:42;4.07;;;3.38;;
19675;SDS011;39539;52.202;9.876;2022-07-24T13:34:07;3.80;;;3.50;;
19675;SDS011;39539;52.202;9.876;2022-07-24T13:36:34;3.42;;;3.22;;
19675;SDS011;39539;52.202;9.876;2022-07-24T13:39:02;3.85;;;3.40;;
19675;SDS011;39539;52.202;9.876;2022-07-24T13:41:29;5.03;;;3.22;;
19675;SDS011;39539;52.202;9.876;2022-07-24T13:43:54;3.83;;;3.45;;
19675;SDS011;39539;52.202;9.876;2022-07-24T13:46:20;3.90;;;3.58;;
19675;SDS011;39539;52.202;9.876;2022-07-24T13:48:45;3.63;;;3.42;;
19675;SDS011;39539;52.202;9.876;2022-07-24T13:51:11;3.60;;;3.40;;
19675;SDS011;39539;52.202;9.876;2022-07-24T13:53:36;3.78;;;3.47;;
19675;SDS011;39539;52.202;9.876;2022-07-24T13:56:06;3.80;;;3.53;;
19675;SDS011;39539;52.202;9.876;2022-07-24T13:58:32;4.00;;;3.70;;
19675;SDS011;39539;52.202;9.876;2022-07-24T14:01:00;3.80;;;3.60;;
19675;SDS011;39539;52.202;9.876;2022-07-24T14:03:25;3.67;;;3.38;;
19675;SDS011;39539;52.202;9.876;2022-07-24T14:05:51;3.80;;;3.50;;
19675;SDS011;39539;52.202;9.876;2022-07-24T14:08:16;3.45;;;3.20;;
19675;SDS011;39539;52.202;9.876;2022-07-24T14:10:42;3.70;;;3.40;;
19675;SDS011;39539;52.202;9.876;2022-07-24T14:13:07;4.63;;;3.10;;
19675;SDS011;39539;52.202;9.876;2022-07-24T14:15:33;3.70;;;3.50;;
19675;SDS011;39539;52.202;9.876;2022-07-24T14:17:58;3.63;;;3.42;;
19675;SDS011;39539;52.202;9.876;2022-07-24T14:20:25;3.72;;;3.42;;
19675;SDS011;39539;52.202;9.876;2022-07-24T14:22:50;3.70;;;3.40;;
19675;SDS011;39539;52.202;9.876;2022-07-24T14:25:15;3.20;;;3.00;;
19675;SDS011;39539;52.202;9.876;2022-07-24T14:27:41;2.97;;;2.83;;
19675;SDS011;39539;52.202;9.876;2022-07-24T14:30:07;3.60;;;3.40;;
19675;SDS011;39539;52.202;9.876;2022-07-24T14:32:33;3.72;;;3.42;;
19675;SDS011;39539;52.202;9.876;2022-07-24T14:34:58;3.47;;;3.25;;
19675;SDS011;39539;52.202;9.876;2022-07-24T14:37:24;3.30;;;3.05;;
19675;SDS011;39539;52.202;9.876;2022-07-24T14:39:50;3.63;;;3.38;;
19675;SDS011;39539;52.202;9.876;2022-07-24T14:42:16;3.92;;;3.63;;
19675;SDS011;39539;52.202;9.876;2022-07-24T14:44:42;3.22;;;3.03;;
19675;SDS011;39539;52.202;9.876;2022-07-24T14:47:08;3.58;;;3.38;;
19675;SDS011;39539;52.202;9.876;2022-07-24T14:49:33;3.78;;;3.47;;
19675;SDS011;39539;52.202;9.876;2022-07-24T14:51:59;3.92;;;3.50;;
19675;SDS011;39539;52.202;9.876;2022-07-24T14:54:24;4.00;;;3.70;;
19675;SDS011;39539;52.202;9.876;2022-07-24T14:56:50;3.40;;;3.20;;
19675;SDS011;39539;52.202;9.876;2022-07-24T14:59:17;3.97;;;3.67;;
19675;SDS011;39539;52.202;9.876;2022-07-24T15:01:43;3.90;;;3.60;;
19675;SDS011;39539;52.202;9.876;2022-07-24T15:04:08;3.95;;;3.75;;
19675;SDS011;39539;52.202;9.876;2022-07-24T15:06:34;3.70;;;3.50;;
19675;SDS011;39539;52.202;9.876;2022-07-24T15:09:02;3.90;;;3.60;;
19675;SDS011;39539;52.202;9.876;2022-07-24T15:11:28;3.85;;;3.60;;
19675;SDS011;39539;52.202;9.876;2022-07-24T15:13:54;3.47;;;3.28;;
19675;SDS011;39539;52.202;9.876;2022-07-24T15:16:19;4.40;;;3.55;;
19675;SDS011;39539;52.202;9.876;2022-07-24T15:18:45;3.95;;;3.65;;
19675;SDS011;39539;52.202;9.876;2022-07-24T15:21:11;3.92;;;3.63;;
19675;SDS011;39539;52.202;9.876;2022-07-24T15:23:36;3.95;;;3.60;;
19675;SDS011;39539;52.202;9.876;2022-07-24T15:26:02;3.55;;;3.35;;
19675;SDS011;39539;52.202;9.876;2022-07-24T15:28:27;3.92;;;3.42;;
19675;SDS011;39539;52.202;9.876;2022-07-24T15:30:54;4.07;;;3.70;;
19675;SDS011;39539;52.202;9.876;2022-07-24T15:33:20;3.70;;;3.40;;
19675;SDS011;39539;52.202;9.876;2022-07-24T15:35:48;3.60;;;3.40;;